Terminal Aerodrome Forecast
Issued by NWS Wilmington, NC

Home | Current Version | Previous Version | Text Only | Print | Product List | Glossary On
Versions: 1 2 3 4 5 6 7 8 9 10 11 12 13 14 15
000
FTUS42 KILM 310211 AAA
TAFLBT
TAF AMD
KLBT 310211Z 3102/3124 14003KT P6SM -RA SCT025 BKN110
     FM310700 VRB03KT 4SM -RA BR SCT007 OVC015
     FM311300 10005KT 4SM -RA BR BKN007 OVC015
     FM311700 12008KT P6SM VCSH SCT015 SCT025 BKN050=

USA.gov is the U.S. government's official web portal to all federal, state and local government web resources and services.